createdAt,value
2018-12-15T00:00:13.757Z,57.87
2018-12-15T00:02:42.730Z,49.43
2018-12-15T00:05:11.682Z,52.70
2018-12-15T00:07:40.687Z,50.80
2018-12-15T00:10:09.661Z,56.53
2018-12-15T00:12:38.578Z,45.63
2018-12-15T00:15:08.917Z,56.07
2018-12-15T00:17:37.910Z,47.80
2018-12-15T00:20:07.781Z,54.93
2018-12-15T00:22:36.769Z,44.60
2018-12-15T00:25:05.734Z,49.80
2018-12-15T00:27:34.681Z,46.00
2018-12-15T00:30:03.668Z,39.77
2018-12-15T00:32:32.635Z,47.20
2018-12-15T00:35:01.587Z,43.90
2018-12-15T00:37:30.532Z,49.30
2018-12-15T00:39:59.482Z,44.17
2018-12-15T00:42:32.057Z,46.43
2018-12-15T00:45:01.046Z,45.27
2018-12-15T00:47:29.982Z,49.40
2018-12-15T00:49:58.940Z,44.90
2018-12-15T00:52:27.933Z,50.20
2018-12-15T00:55:03.643Z,51.37
2018-12-15T00:57:32.570Z,42.03
2018-12-15T01:00:01.543Z,48.63
2018-12-15T01:02:30.466Z,47.13
2018-12-15T01:04:59.435Z,44.03
2018-12-15T01:07:28.375Z,45.40
2018-12-15T01:09:57.349Z,44.83
2018-12-15T01:12:26.286Z,43.03
2018-12-15T01:14:55.217Z,44.97
2018-12-15T01:17:24.149Z,45.37
2018-12-15T01:19:53.169Z,45.87
2018-12-15T01:22:22.108Z,51.03
2018-12-15T01:24:51.041Z,53.13
2018-12-15T01:27:19.994Z,47.00
2018-12-15T01:29:48.908Z,47.90
2018-12-15T01:32:17.945Z,50.90
2018-12-15T01:34:46.993Z,50.07
2018-12-15T01:37:15.922Z,53.90
2018-12-15T01:39:44.834Z,54.47
2018-12-15T01:42:13.826Z,53.07
2018-12-15T01:44:42.793Z,58.60
2018-12-15T01:47:11.735Z,49.90
2018-12-15T01:49:40.665Z,59.77
2018-12-15T01:52:09.599Z,51.70
2018-12-15T01:54:38.541Z,49.13
2018-12-15T01:57:07.482Z,59.27
2018-12-15T01:59:36.409Z,67.00
2018-12-15T02:02:05.462Z,59.97
2018-12-15T02:04:34.395Z,62.40
2018-12-15T02:07:03.354Z,61.37
2018-12-15T02:09:32.314Z,56.47
2018-12-15T02:12:01.307Z,61.97
2018-12-15T02:14:30.258Z,60.13
2018-12-15T02:16:59.301Z,51.73
2018-12-15T02:19:28.324Z,61.23
2018-12-15T02:21:57.414Z,62.73
2018-12-15T02:24:26.387Z,63.70
2018-12-15T02:26:55.430Z,57.60
2018-12-15T02:29:24.335Z,60.30
2018-12-15T02:31:53.414Z,69.63
2018-12-15T02:34:22.380Z,64.77
2018-12-15T02:36:51.319Z,66.57
2018-12-15T02:39:20.278Z,70.27
2018-12-15T02:41:49.268Z,76.30
2018-12-15T02:44:18.194Z,71.60
2018-12-15T02:46:47.307Z,75.47
2018-12-15T02:49:16.284Z,72.37
2018-12-15T02:51:45.199Z,68.47
2018-12-15T02:54:14.313Z,72.33
2018-12-15T02:56:43.230Z,67.90
2018-12-15T02:59:12.172Z,67.80
2018-12-15T03:01:41.191Z,72.17
2018-12-15T03:04:10.141Z,76.30
2018-12-15T03:06:39.275Z,66.33
2018-12-15T03:09:08.776Z,71.20
2018-12-15T03:11:37.706Z,63.20
2018-12-15T03:14:06.680Z,68.23
2018-12-15T03:16:35.649Z,58.10
2018-12-15T03:19:12.269Z,59.60
2018-12-15T03:21:41.201Z,62.07
2018-12-15T03:24:11.067Z,61.37
2018-12-15T03:26:39.987Z,52.73
2018-12-15T03:29:08.939Z,62.50
2018-12-15T03:31:37.876Z,60.10
2018-12-15T03:34:06.836Z,60.40
2018-12-15T03:36:35.759Z,65.10
2018-12-15T03:39:05.349Z,59.33
2018-12-15T03:41:34.337Z,61.13
2018-12-15T03:44:03.310Z,66.07
2018-12-15T03:46:32.225Z,60.00
2018-12-15T03:49:01.506Z,63.90
2018-12-15T03:51:30.438Z,61.10
2018-12-15T03:53:59.467Z,59.80
2018-12-15T03:56:28.401Z,54.83
2018-12-15T03:58:57.568Z,52.63
2018-12-15T04:01:26.667Z,54.77
2018-12-15T04:03:55.595Z,48.93
2018-12-15T04:06:24.554Z,54.13
2018-12-15T04:08:53.496Z,49.83
2018-12-15T04:11:22.421Z,40.60
2018-12-15T04:13:51.376Z,42.90
2018-12-15T04:16:20.302Z,43.30
2018-12-15T04:18:49.319Z,41.57
2018-12-15T04:21:18.248Z,38.80
2018-12-15T04:23:47.192Z,36.33
2018-12-15T04:26:16.250Z,39.13
2018-12-15T04:28:45.186Z,43.60
2018-12-15T04:31:14.113Z,44.07
2018-12-15T04:33:43.056Z,40.63
2018-12-15T04:36:17.197Z,44.67
2018-12-15T04:38:46.181Z,39.30
2018-12-15T04:41:15.125Z,44.43
2018-12-15T04:43:44.178Z,40.33
2018-12-15T04:46:13.107Z,43.57
2018-12-15T04:48:42.057Z,44.57
2018-12-15T04:51:11.015Z,44.03
2018-12-15T04:53:39.973Z,37.47
2018-12-15T04:56:09.006Z,40.20
2018-12-15T04:58:37.931Z,37.23
2018-12-15T05:01:06.894Z,39.33
2018-12-15T05:03:35.797Z,35.80
2018-12-15T05:06:04.740Z,31.43
2018-12-15T05:08:33.666Z,31.60
2018-12-15T05:11:02.623Z,39.57
2018-12-15T05:13:31.547Z,36.53
2018-12-15T05:16:00.489Z,43.23
2018-12-15T05:18:29.412Z,44.63
2018-12-15T05:20:58.357Z,37.33
2018-12-15T05:23:27.269Z,35.97
2018-12-15T05:25:56.214Z,36.63
2018-12-15T05:28:25.557Z,37.63
2018-12-15T05:30:54.493Z,33.07
2018-12-15T05:33:23.439Z,39.67
2018-12-15T05:35:52.413Z,42.77
2018-12-15T05:38:21.341Z,39.90
2018-12-15T05:40:50.298Z,38.77
2018-12-15T05:43:19.221Z,40.40
2018-12-15T05:45:48.163Z,33.00
2018-12-15T05:48:17.076Z,36.50
2018-12-15T05:50:46.022Z,38.03
2018-12-15T05:53:14.958Z,41.77
2018-12-15T05:55:43.921Z,35.80
2018-12-15T05:58:12.993Z,42.27
2018-12-15T06:00:42.047Z,38.30
2018-12-15T06:03:11.007Z,44.00
2018-12-15T06:05:39.959Z,40.50
2018-12-15T06:08:08.885Z,40.33
2018-12-15T06:10:37.855Z,39.70
2018-12-15T06:13:06.765Z,41.67
2018-12-15T06:15:35.729Z,38.97
2018-12-15T06:18:04.677Z,46.47
2018-12-15T06:20:33.619Z,42.47
2018-12-15T06:23:02.540Z,37.10
2018-12-15T06:25:31.471Z,51.07
2018-12-15T06:28:00.481Z,39.33
2018-12-15T06:30:29.463Z,41.13
2018-12-15T06:32:58.490Z,43.40
2018-12-15T06:35:27.562Z,39.90
2018-12-15T06:37:56.506Z,44.67
2018-12-15T06:40:25.557Z,43.40
2018-12-15T06:42:55.475Z,38.60
2018-12-15T06:45:24.382Z,46.90
2018-12-15T06:47:53.430Z,49.83
2018-12-15T06:50:22.394Z,46.93
2018-12-15T06:52:51.327Z,44.03
2018-12-15T06:55:20.244Z,43.50
2018-12-15T06:57:49.197Z,41.50
2018-12-15T07:00:18.166Z,51.87
2018-12-15T07:02:47.124Z,62.67
2018-12-15T07:05:16.030Z,58.80
2018-12-15T07:07:45.451Z,48.93
2018-12-15T07:10:14.833Z,54.60
2018-12-15T07:12:43.758Z,59.17
2018-12-15T07:15:12.841Z,51.40
2018-12-15T07:17:42.017Z,52.23
2018-12-15T07:20:10.942Z,54.87
2018-12-15T07:22:39.873Z,59.37
2018-12-15T07:25:09.485Z,60.37
2018-12-15T07:27:38.644Z,58.77
2018-12-15T07:30:07.628Z,49.57
2018-12-15T07:32:36.578Z,57.60
2018-12-15T07:35:05.566Z,63.47
2018-12-15T07:37:34.645Z,73.70
2018-12-15T07:40:03.640Z,73.53
2018-12-15T07:42:32.590Z,80.60
2018-12-15T07:45:01.543Z,71.50
2018-12-15T07:47:30.573Z,68.43
2018-12-15T07:49:59.511Z,79.47
2018-12-15T07:52:28.534Z,79.57
2018-12-15T07:54:57.613Z,78.03
2018-12-15T07:57:27.076Z,65.30
2018-12-15T07:59:56.013Z,74.40
2018-12-15T08:02:24.962Z,77.27
2018-12-15T08:04:53.999Z,71.27
2018-12-15T08:07:22.956Z,66.07
2018-12-15T08:09:52.370Z,67.30
2018-12-15T08:13:28.335Z,72.40
2018-12-15T08:15:58.484Z,76.73
2018-12-15T08:18:27.932Z,76.67
2018-12-15T08:20:56.855Z,74.23
2018-12-15T08:23:25.797Z,69.17
2018-12-15T08:25:54.898Z,71.60
2018-12-15T08:28:24.046Z,74.57
2018-12-15T08:30:54.278Z,79.17
2018-12-15T08:33:23.252Z,63.07
2018-12-15T08:35:52.253Z,62.10
2018-12-15T08:38:21.260Z,78.47
2018-12-15T08:40:50.246Z,71.43
2018-12-15T08:43:19.261Z,67.30
2018-12-15T08:45:48.317Z,74.50
2018-12-15T08:48:17.289Z,64.20
2018-12-15T08:50:46.525Z,64.50
2018-12-15T08:53:15.484Z,70.77
2018-12-15T08:55:44.416Z,60.03
2018-12-15T08:58:14.665Z,59.03
2018-12-15T09:00:43.848Z,63.97
2018-12-15T09:03:12.782Z,56.40
2018-12-15T09:05:41.696Z,59.77
2018-12-15T09:08:10.654Z,68.40
2018-12-15T09:10:39.855Z,56.20
2018-12-15T09:13:08.971Z,58.67
2018-12-15T09:15:38.019Z,57.33
2018-12-15T09:18:07.181Z,52.33
2018-12-15T09:20:36.191Z,52.30
2018-12-15T09:23:05.189Z,56.47
2018-12-15T09:25:34.136Z,50.30
2018-12-15T09:28:03.191Z,45.70
2018-12-15T09:30:32.173Z,42.80
2018-12-15T09:33:01.281Z,47.57
2018-12-15T09:35:30.827Z,48.80
2018-12-15T09:37:59.780Z,42.30
2018-12-15T09:40:28.732Z,44.90
2018-12-15T09:42:57.695Z,36.50
2018-12-15T09:45:27.240Z,41.70
2018-12-15T09:47:56.220Z,40.90
2018-12-15T09:50:25.184Z,36.47
2018-12-15T09:52:54.137Z,47.37
2018-12-15T09:55:23.086Z,40.63
2018-12-15T09:57:52.200Z,41.00
2018-12-15T10:00:21.141Z,40.77
2018-12-15T10:02:50.102Z,36.30
2018-12-15T10:05:19.057Z,46.93
2018-12-15T10:07:47.995Z,47.70
2018-12-15T10:10:16.949Z,38.53
2018-12-15T10:12:45.864Z,33.73
2018-12-15T10:15:15.114Z,42.23
2018-12-15T10:17:44.026Z,40.33
2018-12-15T10:20:12.976Z,41.00
2018-12-15T10:22:41.889Z,34.80
2018-12-15T10:25:10.886Z,37.93
2018-12-15T10:27:39.905Z,38.27
2018-12-15T10:30:14.712Z,46.30
2018-12-15T10:32:49.163Z,39.03
2018-12-15T10:35:18.166Z,30.73
2018-12-15T10:37:47.519Z,31.80
2018-12-15T10:40:16.656Z,28.00
2018-12-15T10:42:45.667Z,27.50
2018-12-15T10:45:14.667Z,27.73
2018-12-15T10:47:43.685Z,30.93
2018-12-15T10:50:12.814Z,27.27
2018-12-15T10:52:41.797Z,29.13
2018-12-15T10:55:10.863Z,32.97
2018-12-15T10:57:41.140Z,31.90
2018-12-15T11:00:17.213Z,34.23
2018-12-15T11:02:46.194Z,29.30
2018-12-15T11:05:15.219Z,36.40
2018-12-15T11:07:44.202Z,28.87
2018-12-15T11:10:13.174Z,30.40
2018-12-15T11:12:42.175Z,29.83
2018-12-15T11:15:11.158Z,31.63
2018-12-15T11:17:40.171Z,27.23
2018-12-15T11:20:09.397Z,28.50
2018-12-15T11:22:38.400Z,25.40
2018-12-15T11:25:07.825Z,30.77
2018-12-15T11:27:36.829Z,32.20
2018-12-15T11:30:06.393Z,26.20
2018-12-15T11:32:35.446Z,25.20
2018-12-15T11:35:05.660Z,25.30
2018-12-15T11:37:34.669Z,26.40
2018-12-15T11:40:03.704Z,28.13
2018-12-15T11:42:32.726Z,26.33
2018-12-15T11:45:01.716Z,22.43
2018-12-15T11:47:30.727Z,25.07
2018-12-15T11:49:59.703Z,24.57
2018-12-15T11:52:28.716Z,29.07
2018-12-15T11:54:57.710Z,20.53
2018-12-15T11:57:26.802Z,23.27
2018-12-15T11:59:55.786Z,23.00
2018-12-15T12:02:24.804Z,23.40
2018-12-15T12:04:53.815Z,21.57
2018-12-15T12:07:22.942Z,23.73
2018-12-15T12:09:51.935Z,23.33
2018-12-15T12:12:20.965Z,24.20
2018-12-15T12:14:49.951Z,22.23
2018-12-15T12:17:18.979Z,19.47
2018-12-15T12:19:50.320Z,25.80
2018-12-15T12:22:19.398Z,28.43
2018-12-15T12:24:49.037Z,18.43
2018-12-15T12:27:20.263Z,29.43
2018-12-15T12:29:49.256Z,27.13
2018-12-15T12:32:18.259Z,26.83
2018-12-15T12:34:47.236Z,28.53
2018-12-15T12:37:16.188Z,25.37
2018-12-15T12:39:45.149Z,26.73
2018-12-15T12:42:14.233Z,22.67
2018-12-15T12:44:43.179Z,22.57
2018-12-15T12:47:12.138Z,29.97
2018-12-15T12:49:41.071Z,28.77
2018-12-15T12:52:10.046Z,27.17
2018-12-15T12:54:38.962Z,30.40
2018-12-15T12:57:07.906Z,26.00
2018-12-15T12:59:36.866Z,27.73
2018-12-15T13:02:05.820Z,32.53
2018-12-15T13:04:34.765Z,26.50
2018-12-15T13:07:03.882Z,33.03
2018-12-15T13:09:33.194Z,30.80
2018-12-15T13:12:02.123Z,35.57
2018-12-15T13:14:31.134Z,33.40
2018-12-15T13:17:00.072Z,27.70
2018-12-15T13:19:28.983Z,29.77
2018-12-15T13:21:57.942Z,29.87
2018-12-15T13:24:26.913Z,31.50
2018-12-15T13:26:59.127Z,35.40
2018-12-15T13:29:26.855Z,20.23
2018-12-15T13:31:55.774Z,28.97
2018-12-15T13:34:24.744Z,22.37
2018-12-15T13:36:53.670Z,33.90
2018-12-15T13:39:22.611Z,31.27
2018-12-15T13:41:51.561Z,32.97
2018-12-15T13:44:20.519Z,28.43
2018-12-15T13:46:49.444Z,30.47
2018-12-15T13:49:18.445Z,24.93
2018-12-15T13:51:47.413Z,33.90
2018-12-15T13:54:16.346Z,21.70
2018-12-15T13:56:45.306Z,36.53
2018-12-15T13:59:14.262Z,32.23
2018-12-15T14:01:43.202Z,30.10
2018-12-15T14:04:12.247Z,32.67
2018-12-15T14:06:41.164Z,34.40
2018-12-15T14:09:10.102Z,38.13
2018-12-15T14:11:45.773Z,32.20
2018-12-15T14:14:16.428Z,33.77
2018-12-15T14:16:45.337Z,43.03
2018-12-15T14:19:14.277Z,34.80
2018-12-15T14:21:43.275Z,46.23
2018-12-15T14:24:12.201Z,37.03
2018-12-15T14:26:41.150Z,39.33
2018-12-15T14:29:10.098Z,38.47
2018-12-15T14:31:39.053Z,37.67
2018-12-15T14:34:07.997Z,42.00
2018-12-15T14:36:37.070Z,48.03
2018-12-15T14:39:07.385Z,50.10
2018-12-15T14:41:36.600Z,40.57
2018-12-15T14:44:05.629Z,45.53
2018-12-15T14:46:34.667Z,44.30
2018-12-15T14:49:03.590Z,39.40
2018-12-15T14:51:32.727Z,35.30
2018-12-15T14:54:01.715Z,31.87
2018-12-15T14:56:30.716Z,39.57
2018-12-15T14:58:59.660Z,25.17
2018-12-15T15:01:28.711Z,44.20
2018-12-15T15:03:57.657Z,29.17
2018-12-15T15:06:26.607Z,47.50
2018-12-15T15:08:55.599Z,44.70
2018-12-15T15:11:24.566Z,47.67
2018-12-15T15:13:53.602Z,40.50
2018-12-15T15:16:22.599Z,42.80
2018-12-15T15:18:51.618Z,45.57
2018-12-15T15:21:20.605Z,43.43
2018-12-15T15:23:49.606Z,33.23
2018-12-15T15:26:18.610Z,19.93
2018-12-15T15:28:47.620Z,29.63
2018-12-15T15:31:16.622Z,46.50
2018-12-15T15:33:45.627Z,39.10
2018-12-15T15:36:14.641Z,30.70
2018-12-15T15:38:43.705Z,32.70
2018-12-15T15:41:12.732Z,43.03
2018-12-15T15:43:41.718Z,32.07
2018-12-15T15:46:10.722Z,40.83
2018-12-15T15:48:40.228Z,34.13
2018-12-15T15:51:09.238Z,23.60
2018-12-15T15:53:44.833Z,31.03
2018-12-15T15:56:13.806Z,24.30
2018-12-15T15:58:42.797Z,38.27
2018-12-15T16:01:12.192Z,35.43
2018-12-15T16:03:41.219Z,31.23
2018-12-15T16:06:10.239Z,39.80
2018-12-15T16:08:39.321Z,34.83
2018-12-15T16:11:08.355Z,38.40
2018-12-15T16:13:37.464Z,37.43
2018-12-15T16:16:16.550Z,37.03
2018-12-15T16:18:45.543Z,39.00
2018-12-15T16:21:22.511Z,30.13
2018-12-15T16:23:51.434Z,37.73
2018-12-15T16:26:20.368Z,23.80
2018-12-15T16:28:49.296Z,37.80
2018-12-15T16:31:18.253Z,31.53
2018-12-15T16:33:47.222Z,33.30
2018-12-15T16:36:16.326Z,31.67
2018-12-15T16:38:45.267Z,32.05
2018-12-15T16:41:15.474Z,38.30
2018-12-15T16:43:44.387Z,35.00
2018-12-15T16:46:13.335Z,29.53
2018-12-15T16:48:42.376Z,29.87
2018-12-15T16:51:11.437Z,40.40
2018-12-15T16:53:40.358Z,32.50
2018-12-15T16:56:09.981Z,43.30
2018-12-15T16:58:38.885Z,38.70
2018-12-15T17:01:07.827Z,37.27
2018-12-15T17:03:36.972Z,34.10
2018-12-15T17:06:06.183Z,30.83
2018-12-15T17:08:35.127Z,24.43
2018-12-15T17:11:04.502Z,29.40
2018-12-15T17:13:33.430Z,33.87
2018-12-15T17:16:02.381Z,22.43
2018-12-15T17:18:31.296Z,33.47
2018-12-15T17:21:00.265Z,22.73
2018-12-15T17:23:29.266Z,30.47
2018-12-15T17:25:59.442Z,29.63
2018-12-15T17:28:28.483Z,21.63
2018-12-15T17:30:57.443Z,25.17
2018-12-15T17:33:26.393Z,32.20
2018-12-15T17:35:55.341Z,29.37
2018-12-15T17:38:24.274Z,27.67
2018-12-15T17:40:53.272Z,20.73
2018-12-15T17:43:22.184Z,27.53
2018-12-15T17:45:51.152Z,25.20
2018-12-15T17:48:20.119Z,27.77
2018-12-15T17:50:49.063Z,13.13
2018-12-15T17:53:17.985Z,24.80
2018-12-15T17:55:46.907Z,30.73
2018-12-15T17:58:15.860Z,22.50
2018-12-15T18:00:44.785Z,25.50
2018-12-15T18:03:13.740Z,34.67
2018-12-15T18:05:42.674Z,24.43
2018-12-15T18:08:11.669Z,23.67
2018-12-15T18:10:40.569Z,26.97
2018-12-15T18:13:09.513Z,22.70
2018-12-15T18:15:38.435Z,29.83
2018-12-15T18:18:07.369Z,20.63
2018-12-15T18:20:36.601Z,24.93
2018-12-15T18:23:05.548Z,36.83
2018-12-15T18:25:34.612Z,20.43
2018-12-15T18:28:03.567Z,28.20
2018-12-15T18:30:32.513Z,18.13
2018-12-15T18:33:01.445Z,20.97
2018-12-15T18:35:30.361Z,23.67
2018-12-15T18:37:59.350Z,31.57
2018-12-15T18:40:28.452Z,31.13
2018-12-15T18:42:57.410Z,23.07
2018-12-15T18:45:26.392Z,30.23
2018-12-15T18:47:55.355Z,19.57
2018-12-15T18:50:24.312Z,25.30
2018-12-15T18:52:53.276Z,27.10
2018-12-15T18:55:22.420Z,24.10
2018-12-15T18:57:51.394Z,19.60
2018-12-15T19:00:20.308Z,30.50
2018-12-15T19:02:49.251Z,31.50
2018-12-15T19:05:18.378Z,27.07
2018-12-15T19:07:47.326Z,33.27
2018-12-15T19:10:16.339Z,26.50
2018-12-15T19:12:45.323Z,24.30
2018-12-15T19:15:14.284Z,32.98
2018-12-15T19:17:43.234Z,26.90
2018-12-15T19:20:12.160Z,31.43
2018-12-15T19:22:41.090Z,30.97
2018-12-15T19:25:10.028Z,19.73
2018-12-15T19:27:38.972Z,23.43
2018-12-15T19:30:08.786Z,30.37
2018-12-15T19:32:37.709Z,28.83
2018-12-15T19:35:06.645Z,25.37
2018-12-15T19:37:35.594Z,26.13
2018-12-15T19:40:05.120Z,27.10
2018-12-15T19:42:34.091Z,23.17
2018-12-15T19:45:03.068Z,13.67
2018-12-15T19:47:32.003Z,22.10
2018-12-15T19:50:00.977Z,28.93
2018-12-15T19:52:29.925Z,24.07
2018-12-15T19:54:58.884Z,14.27
2018-12-15T19:57:27.818Z,23.77
2018-12-15T19:59:56.802Z,25.50
2018-12-15T20:02:25.846Z,32.37
2018-12-15T20:04:55.119Z,28.93
2018-12-15T20:07:24.091Z,22.87
2018-12-15T20:09:53.110Z,31.90
2018-12-15T20:12:22.979Z,17.10
2018-12-15T20:14:51.970Z,28.40
2018-12-15T20:17:20.936Z,33.90
2018-12-15T20:19:49.915Z,32.37
2018-12-15T20:22:18.906Z,37.53
2018-12-15T20:24:47.888Z,28.57
2018-12-15T20:27:18.046Z,27.60
2018-12-15T20:29:47.739Z,14.97
2018-12-15T20:32:17.910Z,37.23
2018-12-15T20:34:47.143Z,28.07
2018-12-15T20:37:16.111Z,25.90
2018-12-15T20:39:45.102Z,29.23
2018-12-15T20:42:14.117Z,30.17
2018-12-15T20:44:43.136Z,27.40
2018-12-15T20:47:12.089Z,31.47
2018-12-15T20:49:41.075Z,23.20
2018-12-15T20:52:10.090Z,27.30
2018-12-15T20:54:39.058Z,26.70
2018-12-15T20:57:08.153Z,20.43
2018-12-15T20:59:37.226Z,20.23
2018-12-15T21:02:06.185Z,25.37
2018-12-15T21:04:35.158Z,26.13
2018-12-15T21:07:04.122Z,26.23
2018-12-15T21:09:39.859Z,33.73
2018-12-15T21:12:08.818Z,17.53
2018-12-15T21:14:37.802Z,23.80
2018-12-15T21:17:07.109Z,23.93
2018-12-15T21:19:36.193Z,24.57
2018-12-15T21:22:05.218Z,18.77
2018-12-15T21:24:34.691Z,27.53
2018-12-15T21:27:03.666Z,18.90
2018-12-15T21:29:33.406Z,30.30
2018-12-15T21:32:02.366Z,26.97
2018-12-15T21:34:31.428Z,32.00
2018-12-15T21:37:00.398Z,20.73
2018-12-15T21:39:29.347Z,21.53
2018-12-15T21:42:00.046Z,31.37
2018-12-15T21:44:29.488Z,29.13
2018-12-15T21:46:58.663Z,22.60
2018-12-15T21:49:27.671Z,32.37
2018-12-15T21:51:56.663Z,34.03
2018-12-15T21:54:25.721Z,26.83
2018-12-15T21:56:55.859Z,31.27
2018-12-15T21:59:24.801Z,32.20
2018-12-15T22:01:53.889Z,35.20
2018-12-15T22:04:22.899Z,23.77
2018-12-15T22:06:51.924Z,29.73
2018-12-15T22:09:20.885Z,28.97
2018-12-15T22:11:49.958Z,31.47
2018-12-15T22:14:25.524Z,22.87
2018-12-15T22:16:54.543Z,30.80
2018-12-15T22:19:23.538Z,30.07
2018-12-15T22:21:52.749Z,31.97
2018-12-15T22:24:21.694Z,24.73
2018-12-15T22:26:50.782Z,34.90
2018-12-15T22:29:19.919Z,30.60
2018-12-15T22:31:51.583Z,36.77
2018-12-15T22:34:20.670Z,20.20
2018-12-15T22:36:49.957Z,51.43
2018-12-15T22:39:20.084Z,42.03
2018-12-15T22:41:49.247Z,33.20
2018-12-15T22:44:18.226Z,48.37
2018-12-15T22:46:47.215Z,42.77
2018-12-15T22:49:16.197Z,41.80
2018-12-15T22:51:45.195Z,48.50
2018-12-15T22:54:14.304Z,49.33
2018-12-15T22:56:43.286Z,26.50
2018-12-15T22:59:12.263Z,41.00
2018-12-15T23:01:46.495Z,46.97
2018-12-15T23:04:15.763Z,37.10
2018-12-15T23:06:44.744Z,31.83
2018-12-15T23:09:13.706Z,31.87
2018-12-15T23:11:42.692Z,31.40
2018-12-15T23:14:11.659Z,37.63
2018-12-15T23:16:40.656Z,20.37
2018-12-15T23:19:09.623Z,35.67
2018-12-15T23:21:38.611Z,22.47
2018-12-15T23:24:07.602Z,34.87
2018-12-15T23:26:36.589Z,19.57
2018-12-15T23:29:05.567Z,36.47
2018-12-15T23:31:34.564Z,29.40
2018-12-15T23:34:03.584Z,37.60
2018-12-15T23:36:32.574Z,32.87
2018-12-15T23:39:01.539Z,49.90
2018-12-15T23:41:30.540Z,41.63
2018-12-15T23:43:59.508Z,43.23
2018-12-15T23:46:28.489Z,22.90
2018-12-15T23:48:57.452Z,40.53
2018-12-15T23:51:26.461Z,50.90
2018-12-15T23:53:55.476Z,41.50
2018-12-15T23:56:24.440Z,27.50
2018-12-15T23:58:53.507Z,17.40
